createdAt,value
2023-04-27T00:01:49.775Z,2.32
2023-04-27T00:04:18.158Z,2.31
2023-04-27T00:06:46.494Z,2.30
2023-04-27T00:09:14.699Z,2.31
2023-04-27T00:11:42.917Z,2.31
2023-04-27T00:14:11.008Z,2.31
2023-04-27T00:16:39.046Z,2.31
2023-04-27T00:19:09.030Z,2.30
2023-04-27T00:21:36.972Z,2.29
2023-04-27T00:24:06.105Z,2.28
2023-04-27T00:26:34.149Z,2.27
2023-04-27T00:29:02.060Z,2.27
2023-04-27T00:31:30.046Z,2.27
2023-04-27T00:33:58.080Z,2.27
2023-04-27T00:36:27.124Z,2.27
2023-04-27T00:38:55.084Z,2.24
2023-04-27T00:41:23.120Z,2.20
2023-04-27T00:43:51.222Z,2.17
2023-04-27T00:46:19.969Z,2.15
2023-04-27T00:48:48.407Z,2.13
2023-04-27T00:51:16.935Z,2.11
2023-04-27T00:53:44.958Z,2.09
2023-04-27T00:56:13.133Z,2.09
2023-04-27T00:58:41.120Z,2.09
2023-04-27T01:01:10.353Z,2.10
2023-04-27T01:03:38.559Z,2.11
2023-04-27T01:06:07.633Z,2.11
2023-04-27T01:08:36.834Z,2.14
2023-04-27T01:11:05.075Z,2.13
2023-04-27T01:13:32.972Z,2.14
2023-04-27T01:16:02.635Z,2.14
2023-04-27T01:18:31.943Z,2.14
2023-04-27T01:21:00.531Z,2.14
2023-04-27T01:23:28.625Z,2.15
2023-04-27T01:25:56.720Z,2.13
2023-04-27T01:28:24.635Z,2.13
2023-04-27T01:30:52.646Z,2.13
2023-04-27T01:33:21.073Z,2.14
2023-04-27T01:35:49.621Z,2.14
2023-04-27T01:38:18.115Z,2.12
2023-04-27T01:40:46.076Z,2.12
2023-04-27T01:43:14.559Z,2.12
2023-04-27T01:45:42.476Z,2.10
2023-04-27T01:48:11.766Z,2.08
2023-04-27T01:50:39.675Z,2.07
2023-04-27T01:53:07.787Z,2.07
2023-04-27T01:55:35.860Z,2.06
2023-04-27T01:58:03.841Z,2.06
2023-04-27T02:00:33.082Z,2.04
2023-04-27T02:03:01.404Z,2.02
2023-04-27T02:05:29.637Z,1.96
2023-04-27T02:07:57.534Z,1.94
2023-04-27T02:10:25.699Z,1.90
2023-04-27T02:12:57.251Z,1.86
2023-04-27T02:15:25.287Z,1.83
2023-04-27T02:17:53.262Z,1.79
2023-04-27T02:20:21.280Z,1.75
2023-04-27T02:22:49.200Z,1.70
2023-04-27T02:25:17.233Z,1.67
2023-04-27T02:27:45.248Z,1.63
2023-04-27T02:30:15.475Z,1.61
2023-04-27T02:32:44.254Z,1.58
2023-04-27T02:35:12.404Z,1.57
2023-04-27T02:37:40.330Z,1.56
2023-04-27T02:40:09.426Z,1.56
2023-04-27T02:42:39.141Z,1.54
2023-04-27T02:45:08.268Z,1.53
2023-04-27T02:47:37.778Z,1.49
2023-04-27T02:50:06.147Z,1.47
2023-04-27T02:52:35.563Z,1.46
2023-04-27T02:55:03.682Z,1.45
2023-04-27T02:57:31.818Z,1.44
2023-04-27T02:59:59.811Z,1.44
2023-04-27T03:02:27.815Z,1.43
2023-04-27T03:04:56.158Z,1.43
2023-04-27T03:07:25.321Z,1.42
2023-04-27T03:09:53.220Z,1.43
2023-04-27T03:12:21.098Z,1.44
2023-04-27T03:14:49.028Z,1.43
2023-04-27T03:17:16.887Z,1.45
2023-04-27T03:19:47.038Z,1.46
2023-04-27T03:22:15.005Z,1.48
2023-04-27T03:24:43.378Z,1.51
2023-04-27T03:27:11.981Z,1.53
2023-04-27T03:29:39.893Z,1.56
2023-04-27T03:32:08.212Z,1.57
2023-04-27T03:34:37.068Z,1.59
2023-04-27T03:37:05.051Z,1.60
2023-04-27T03:39:33.039Z,1.63
2023-04-27T03:42:01.532Z,1.64
2023-04-27T03:44:31.656Z,1.69
2023-04-27T03:47:00.659Z,1.72
2023-04-27T03:49:28.904Z,1.75
2023-04-27T03:51:57.255Z,1.79
2023-04-27T03:54:25.129Z,1.82
2023-04-27T03:56:53.032Z,1.85
2023-04-27T03:59:21.586Z,1.90
2023-04-27T04:01:51.857Z,1.94
2023-04-27T04:04:21.648Z,2.00
2023-04-27T04:06:49.733Z,2.06
2023-04-27T04:09:18.126Z,2.10
2023-04-27T04:11:46.071Z,2.15
2023-04-27T04:14:15.488Z,2.22
2023-04-27T04:16:43.374Z,2.29
2023-04-27T04:19:11.482Z,2.36
2023-04-27T04:21:39.509Z,2.41
2023-04-27T04:24:07.627Z,2.48
2023-04-27T04:26:35.571Z,2.56
2023-04-27T04:29:03.821Z,2.61
2023-04-27T04:31:33.815Z,2.64
2023-04-27T04:34:02.486Z,2.70
2023-04-27T04:36:32.022Z,2.73
2023-04-27T04:39:00.662Z,2.74
2023-04-27T04:41:28.558Z,2.75
2023-04-27T04:43:56.503Z,2.79
2023-04-27T04:46:25.181Z,2.81
2023-04-27T04:48:54.880Z,2.83
2023-04-27T04:51:23.014Z,2.87
2023-04-27T04:53:51.190Z,2.91
2023-04-27T04:56:19.130Z,2.96
2023-04-27T04:58:47.051Z,3.06
2023-04-27T05:01:15.001Z,3.16
2023-04-27T05:03:43.073Z,3.28
2023-04-27T05:06:11.262Z,3.39
2023-04-27T05:08:39.151Z,3.55
2023-04-27T05:11:07.554Z,3.70
2023-04-27T05:13:35.844Z,3.84
2023-04-27T05:16:08.311Z,4.01
2023-04-27T05:18:36.401Z,4.19
2023-04-27T05:21:04.370Z,4.29
2023-04-27T05:23:32.262Z,4.36
2023-04-27T05:26:00.416Z,4.37
2023-04-27T05:28:28.324Z,4.30
2023-04-27T05:30:56.436Z,4.40
2023-04-27T05:33:24.317Z,4.56
2023-04-27T05:35:52.351Z,4.79
2023-04-27T05:38:20.436Z,5.06
2023-04-27T05:40:57.463Z,5.28
2023-04-27T05:43:26.313Z,5.51
2023-04-27T05:45:54.336Z,5.73
2023-04-27T05:48:22.291Z,5.91
2023-04-27T05:50:59.857Z,6.10
2023-04-27T05:53:27.863Z,6.27
2023-04-27T05:55:59.292Z,6.33
2023-04-27T05:58:30.495Z,6.44
2023-04-27T06:00:58.958Z,6.61
2023-04-27T06:03:27.369Z,6.75
2023-04-27T06:05:58.772Z,6.84
2023-04-27T06:08:28.028Z,6.99
2023-04-27T06:10:56.070Z,7.15
2023-04-27T06:13:24.136Z,7.31
2023-04-27T06:15:52.203Z,7.47
2023-04-27T06:18:20.235Z,7.63
2023-04-27T06:20:48.248Z,7.75
2023-04-27T06:23:16.316Z,7.84
2023-04-27T06:25:44.450Z,7.95
2023-04-27T06:28:12.405Z,8.09
2023-04-27T06:30:40.336Z,8.18
2023-04-27T06:33:09.176Z,8.28
2023-04-27T06:35:37.206Z,8.35
2023-04-27T06:38:07.559Z,8.49
2023-04-27T06:40:37.170Z,8.63
2023-04-27T06:43:05.059Z,8.70
2023-04-27T06:45:33.034Z,8.78
2023-04-27T06:48:00.988Z,8.86
2023-04-27T06:50:29.547Z,8.88
2023-04-27T06:52:57.674Z,8.92
2023-04-27T06:55:25.742Z,9.03
2023-04-27T06:57:53.665Z,9.05
2023-04-27T07:00:21.951Z,9.06
2023-04-27T07:02:49.947Z,9.17
2023-04-27T07:05:17.989Z,9.19
2023-04-27T07:07:47.008Z,9.30
2023-04-27T07:10:14.921Z,9.20
2023-04-27T07:12:42.948Z,8.94
2023-04-27T07:15:11.517Z,8.84
2023-04-27T07:17:39.456Z,9.03
2023-04-27T07:20:08.790Z,9.33
2023-04-27T07:22:36.782Z,9.52
2023-04-27T07:25:05.685Z,9.61
2023-04-27T07:27:35.724Z,9.50
2023-04-27T07:30:04.777Z,9.28
2023-04-27T07:32:32.819Z,8.95
2023-04-27T07:35:00.915Z,8.65
2023-04-27T07:37:28.967Z,8.51
2023-04-27T07:39:57.734Z,8.43
2023-04-27T07:42:25.701Z,8.43
2023-04-27T07:44:54.283Z,8.67
2023-04-27T07:47:22.206Z,8.92
2023-04-27T07:49:50.214Z,9.10
2023-04-27T07:52:18.180Z,9.33
2023-04-27T07:54:46.057Z,9.37
2023-04-27T07:57:14.028Z,9.26
2023-04-27T07:59:42.037Z,9.11
2023-04-27T08:02:18.562Z,9.01
2023-04-27T08:04:48.611Z,9.04
2023-04-27T08:07:18.089Z,9.30
2023-04-27T08:09:46.185Z,9.63
2023-04-27T08:12:14.243Z,9.84
2023-04-27T08:14:42.672Z,9.85
2023-04-27T08:17:11.412Z,9.72
2023-04-27T08:19:40.789Z,9.57
2023-04-27T08:22:08.836Z,9.35
2023-04-27T08:24:37.472Z,9.04
2023-04-27T08:27:09.623Z,8.81
2023-04-27T08:29:37.686Z,8.62
2023-04-27T08:32:05.886Z,8.56
2023-04-27T08:34:33.862Z,8.55
2023-04-27T08:37:03.344Z,8.67
2023-04-27T08:39:31.259Z,8.71
2023-04-27T08:41:59.175Z,8.69
2023-04-27T08:44:27.119Z,8.61
2023-04-27T08:46:55.045Z,8.70
2023-04-27T08:49:23.415Z,8.75
2023-04-27T08:51:51.503Z,8.76
2023-04-27T08:54:20.897Z,8.74
2023-04-27T08:56:48.837Z,8.79
2023-04-27T08:59:18.027Z,8.75
2023-04-27T09:01:50.010Z,8.61
2023-04-27T09:04:18.715Z,8.53
2023-04-27T09:06:46.836Z,8.42
2023-04-27T09:09:25.478Z,8.36
2023-04-27T09:11:53.488Z,8.29
2023-04-27T09:14:24.236Z,8.20
2023-04-27T09:16:57.666Z,8.15
2023-04-27T09:19:27.299Z,8.11
2023-04-27T09:22:11.396Z,8.06
2023-04-27T09:24:51.360Z,8.01
2023-04-27T09:27:21.809Z,7.97
2023-04-27T09:29:49.679Z,7.89
2023-04-27T09:32:19.800Z,7.82
2023-04-27T09:34:47.701Z,7.85
2023-04-27T09:37:16.001Z,7.82
2023-04-27T09:39:44.700Z,7.71
2023-04-27T09:42:13.404Z,7.67
2023-04-27T09:44:41.426Z,7.72
2023-04-27T09:47:10.748Z,7.81
2023-04-27T09:49:38.956Z,7.98
2023-04-27T09:52:07.229Z,8.22
2023-04-27T09:54:36.507Z,8.63
2023-04-27T09:57:46.779Z,8.99
2023-04-27T10:00:33.451Z,9.35
2023-04-27T10:03:16.866Z,9.69
2023-04-27T10:05:57.358Z,9.83
2023-04-27T10:08:25.654Z,9.94
2023-04-27T10:10:53.752Z,10.07
2023-04-27T10:13:24.040Z,9.89
2023-04-27T10:15:52.736Z,9.69
2023-04-27T10:18:29.486Z,9.57
2023-04-27T10:21:09.772Z,9.35
2023-04-27T10:23:47.387Z,9.14
2023-04-27T10:26:26.583Z,8.95
2023-04-27T10:29:08.805Z,8.88
2023-04-27T10:31:44.207Z,8.89
2023-04-27T10:34:18.522Z,9.07
2023-04-27T10:36:48.668Z,9.22
2023-04-27T10:39:19.162Z,9.42
2023-04-27T10:41:51.947Z,9.57
2023-04-27T10:44:58.187Z,9.74
2023-04-27T10:47:36.638Z,9.65
2023-04-27T10:50:05.175Z,9.75
2023-04-27T10:52:31.825Z,9.82
2023-04-27T10:55:04.706Z,9.95
2023-04-27T10:57:31.306Z,10.08
2023-04-27T10:59:57.985Z,9.99
2023-04-27T11:02:26.679Z,9.98
2023-04-27T11:04:55.136Z,10.00
2023-04-27T11:07:27.051Z,9.97
2023-04-27T11:09:54.166Z,10.01
2023-04-27T11:12:21.076Z,10.16
2023-04-27T11:14:47.708Z,10.30
2023-04-27T11:17:14.271Z,10.46
2023-04-27T11:19:46.867Z,10.66
2023-04-27T11:22:17.417Z,10.75
2023-04-27T11:24:49.796Z,10.79
2023-04-27T11:27:17.333Z,10.79
2023-04-27T11:29:44.242Z,10.83
2023-04-27T11:32:22.029Z,10.73
2023-04-27T11:34:54.305Z,10.54
2023-04-27T11:37:23.689Z,10.33
2023-04-27T11:39:51.388Z,10.30
2023-04-27T11:42:19.208Z,10.32
2023-04-27T11:44:57.421Z,10.32
2023-04-27T11:47:26.858Z,10.24
2023-04-27T11:50:01.024Z,10.04
2023-04-27T11:52:32.495Z,9.76
2023-04-27T11:55:00.671Z,9.55
2023-04-27T11:57:32.173Z,9.54
2023-04-27T12:00:00.783Z,9.60
2023-04-27T12:02:29.137Z,9.62
2023-04-27T12:04:58.259Z,9.75
2023-04-27T12:07:24.931Z,9.88
2023-04-27T12:09:51.465Z,10.02
2023-04-27T12:12:18.662Z,10.07
2023-04-27T12:14:45.373Z,10.08
2023-04-27T12:17:12.212Z,10.01
2023-04-27T12:19:38.828Z,10.03
2023-04-27T12:22:05.790Z,10.05
2023-04-27T12:24:32.357Z,9.92
2023-04-27T12:26:59.060Z,9.78
2023-04-27T12:29:25.749Z,9.64
2023-04-27T12:31:52.730Z,9.47
2023-04-27T12:34:20.243Z,9.37
2023-04-27T12:36:46.792Z,9.19
2023-04-27T12:39:13.953Z,8.96
2023-04-27T12:41:42.700Z,8.84
2023-04-27T12:44:09.574Z,8.80
2023-04-27T12:46:36.148Z,8.79
2023-04-27T12:49:02.812Z,8.77
2023-04-27T12:51:29.509Z,8.83
2023-04-27T12:53:56.201Z,8.86
2023-04-27T12:56:23.586Z,8.95
2023-04-27T12:58:50.317Z,8.96
2023-04-27T13:01:17.240Z,8.97
2023-04-27T13:03:44.174Z,8.99
2023-04-27T13:06:11.531Z,9.01
2023-04-27T13:08:38.769Z,9.07
2023-04-27T13:11:05.413Z,9.10
2023-04-27T13:13:32.008Z,9.05
2023-04-27T13:15:58.595Z,9.10
2023-04-27T13:18:25.680Z,9.27
2023-04-27T13:20:52.548Z,9.50
2023-04-27T13:23:19.136Z,9.64
2023-04-27T13:25:45.710Z,9.76
2023-04-27T13:28:12.431Z,9.86
2023-04-27T13:30:39.107Z,9.82
2023-04-27T13:33:21.197Z,9.72
2023-04-27T13:35:51.390Z,9.55
2023-04-27T13:38:17.973Z,9.45
2023-04-27T13:40:44.740Z,9.44
2023-04-27T13:43:11.284Z,9.42
2023-04-27T13:45:39.789Z,9.38
2023-04-27T13:48:06.563Z,9.27
2023-04-27T13:50:33.179Z,9.17
2023-04-27T13:53:01.259Z,9.20
2023-04-27T13:55:27.933Z,9.21
2023-04-27T13:57:54.467Z,9.30
2023-04-27T14:00:21.352Z,9.23
2023-04-27T14:02:47.971Z,9.22
2023-04-27T14:05:14.809Z,9.14
2023-04-27T14:07:41.317Z,9.07
2023-04-27T14:10:08.351Z,8.98
2023-04-27T14:12:35.475Z,8.93
2023-04-27T14:15:02.451Z,9.01
2023-04-27T14:17:29.008Z,9.11
2023-04-27T14:19:55.628Z,9.18
2023-04-27T14:22:22.291Z,9.21
2023-04-27T14:24:48.977Z,9.21
2023-04-27T14:27:16.512Z,9.17
2023-04-27T14:29:43.160Z,9.12
2023-04-27T14:32:09.721Z,9.06
2023-04-27T14:34:36.669Z,8.96
2023-04-27T14:37:03.473Z,8.98
2023-04-27T14:39:30.181Z,9.07
2023-04-27T14:41:56.738Z,9.22
2023-04-27T14:44:23.362Z,9.30
2023-04-27T14:46:50.149Z,9.35
2023-04-27T14:49:17.132Z,9.33
2023-04-27T14:51:44.022Z,9.27
2023-04-27T14:54:10.734Z,9.17
2023-04-27T14:56:37.359Z,9.09
2023-04-27T14:59:04.699Z,9.08
2023-04-27T15:01:31.264Z,9.08
2023-04-27T15:03:58.280Z,9.00
2023-04-27T15:06:28.032Z,8.89
2023-04-27T15:08:54.934Z,8.84
2023-04-27T15:11:21.988Z,8.80
2023-04-27T15:13:48.751Z,8.75
2023-04-27T15:16:15.425Z,8.65
2023-04-27T15:18:42.526Z,8.54
2023-04-27T15:21:09.256Z,8.48
2023-04-27T15:23:36.760Z,8.46
2023-04-27T15:26:03.411Z,8.45
2023-04-27T15:28:32.969Z,8.45
2023-04-27T15:31:00.120Z,8.49
2023-04-27T15:33:26.944Z,8.57
2023-04-27T15:35:53.550Z,8.66
2023-04-27T15:38:20.459Z,8.71
2023-04-27T15:40:47.090Z,8.70
2023-04-27T15:43:14.409Z,8.65
2023-04-27T15:45:41.330Z,8.62
2023-04-27T15:48:07.953Z,8.55
2023-04-27T15:50:34.621Z,8.50
2023-04-27T15:53:01.202Z,8.47
2023-04-27T15:55:27.723Z,8.47
2023-04-27T15:57:54.307Z,8.44
2023-04-27T16:00:21.844Z,8.43
2023-04-27T16:02:48.578Z,8.45
2023-04-27T16:05:16.214Z,8.44
2023-04-27T16:07:44.483Z,8.43
2023-04-27T16:10:11.643Z,8.44
2023-04-27T16:12:38.442Z,8.45
2023-04-27T16:15:06.914Z,8.42
2023-04-27T16:17:35.470Z,8.41
2023-04-27T16:20:05.986Z,8.37
2023-04-27T16:22:34.132Z,8.33
2023-04-27T16:25:01.579Z,8.31
2023-04-27T16:27:28.192Z,8.25
2023-04-27T16:29:55.906Z,8.19
2023-04-27T16:32:23.023Z,8.17
2023-04-27T16:34:50.166Z,8.21
2023-04-27T16:37:16.729Z,8.25
2023-04-27T16:39:43.418Z,8.28
2023-04-27T16:42:10.230Z,8.30
2023-04-27T16:44:37.762Z,8.28
2023-04-27T16:47:04.317Z,8.27
2023-04-27T16:49:30.887Z,8.21
2023-04-27T16:51:57.725Z,8.13
2023-04-27T16:54:24.275Z,8.08
2023-04-27T16:56:51.292Z,8.03
2023-04-27T16:59:19.021Z,8.00
2023-04-27T17:01:45.579Z,7.96
2023-04-27T17:04:12.544Z,7.92
2023-04-27T17:06:40.571Z,7.85
2023-04-27T17:09:07.799Z,7.76
2023-04-27T17:11:34.477Z,7.67
2023-04-27T17:14:01.178Z,7.60
2023-04-27T17:16:27.761Z,7.57
2023-04-27T17:18:55.595Z,7.61
2023-04-27T17:21:24.508Z,7.55
2023-04-27T17:23:52.484Z,7.51
2023-04-27T17:26:39.148Z,7.49
2023-04-27T17:29:07.189Z,7.45
2023-04-27T17:31:35.102Z,7.46
2023-04-27T17:34:03.425Z,7.45
2023-04-27T17:36:31.638Z,7.40
2023-04-27T17:39:01.247Z,7.39
2023-04-27T17:41:29.204Z,7.34
2023-04-27T17:43:58.304Z,7.27
2023-04-27T17:46:27.430Z,7.19
2023-04-27T17:48:55.539Z,7.15
2023-04-27T17:51:25.162Z,7.08
2023-04-27T17:53:53.116Z,7.00
2023-04-27T17:56:21.013Z,6.94
2023-04-27T17:58:48.918Z,6.88
2023-04-27T18:01:16.907Z,6.85
2023-04-27T18:03:45.089Z,6.81
2023-04-27T18:06:13.210Z,6.82
2023-04-27T18:08:41.309Z,6.82
2023-04-27T18:11:09.241Z,6.81
2023-04-27T18:13:37.901Z,6.80
2023-04-27T18:16:06.054Z,6.76
2023-04-27T18:18:34.035Z,6.76
2023-04-27T18:21:02.021Z,6.76
2023-04-27T18:23:30.658Z,6.77
2023-04-27T18:26:00.081Z,6.76
2023-04-27T18:28:28.026Z,6.70
2023-04-27T18:30:56.045Z,6.63
2023-04-27T18:33:24.055Z,6.65
2023-04-27T18:35:52.062Z,6.63
2023-04-27T18:38:19.994Z,6.65
2023-04-27T18:40:47.927Z,6.66
2023-04-27T18:43:15.986Z,6.61
2023-04-27T18:45:43.979Z,6.61
2023-04-27T18:48:11.938Z,6.58
2023-04-27T18:50:40.202Z,6.50
2023-04-27T18:53:08.281Z,6.50
2023-04-27T18:55:36.179Z,6.47
2023-04-27T18:58:04.031Z,6.43
2023-04-27T19:00:32.135Z,6.40
2023-04-27T19:03:00.169Z,6.37
2023-04-27T19:05:28.293Z,6.35
2023-04-27T19:07:56.223Z,6.30
2023-04-27T19:10:24.357Z,6.25
2023-04-27T19:12:53.243Z,6.21
2023-04-27T19:15:21.522Z,6.19
2023-04-27T19:17:58.564Z,6.14
2023-04-27T19:20:35.575Z,6.07
2023-04-27T19:23:05.172Z,6.04
2023-04-27T19:25:33.364Z,6.01
2023-04-27T19:28:01.399Z,5.96
2023-04-27T19:30:29.868Z,5.94
2023-04-27T19:32:57.932Z,5.90
2023-04-27T19:35:27.562Z,5.86
2023-04-27T19:37:56.008Z,5.83
2023-04-27T19:40:26.884Z,5.84
2023-04-27T19:42:55.143Z,5.82
2023-04-27T19:45:23.706Z,5.81
2023-04-27T19:47:51.696Z,5.80
2023-04-27T19:50:19.969Z,5.77
2023-04-27T19:52:48.005Z,5.70
2023-04-27T19:55:16.044Z,5.60
2023-04-27T19:57:44.783Z,5.53
2023-04-27T20:00:13.180Z,5.46
2023-04-27T20:02:41.962Z,5.40
2023-04-27T20:05:11.580Z,5.39
2023-04-27T20:07:39.736Z,5.38
2023-04-27T20:10:07.857Z,5.35
2023-04-27T20:15:08.138Z,5.40
2023-04-27T20:17:36.636Z,5.38
2023-04-27T20:20:10.533Z,5.33
2023-04-27T20:22:38.924Z,5.32
2023-04-27T20:25:07.933Z,5.31
2023-04-27T20:27:36.121Z,5.27
2023-04-27T20:30:04.551Z,5.21
2023-04-27T20:32:32.481Z,5.20
2023-04-27T20:35:02.623Z,5.17
2023-04-27T20:37:32.195Z,5.12
2023-04-27T20:40:00.982Z,5.09
2023-04-27T20:42:29.687Z,5.09
2023-04-27T20:44:57.760Z,5.07
2023-04-27T20:47:25.853Z,5.07
2023-04-27T20:49:53.867Z,5.09
2023-04-27T20:52:21.961Z,5.06
2023-04-27T20:54:49.922Z,5.00
2023-04-27T20:57:17.872Z,4.96
2023-04-27T20:59:45.857Z,4.92
2023-04-27T21:02:13.855Z,4.93
2023-04-27T21:04:43.253Z,4.92
2023-04-27T21:07:11.510Z,4.87
2023-04-27T21:09:39.484Z,4.84
2023-04-27T21:12:07.689Z,4.82
2023-04-27T21:14:35.956Z,4.80
2023-04-27T21:17:04.183Z,4.75
2023-04-27T21:19:32.228Z,4.73
2023-04-27T21:22:00.173Z,4.75
2023-04-27T21:24:28.111Z,4.76
2023-04-27T21:26:56.174Z,4.77
2023-04-27T21:29:24.246Z,4.71
2023-04-27T21:31:52.186Z,4.60
2023-04-27T21:34:20.157Z,4.59
2023-04-27T21:36:48.067Z,4.63
2023-04-27T21:39:16.086Z,4.67
2023-04-27T21:41:44.081Z,4.71
2023-04-27T21:44:12.045Z,4.76
2023-04-27T21:46:40.043Z,4.76
2023-04-27T21:49:08.833Z,4.75
2023-04-27T21:51:37.104Z,4.71
2023-04-27T21:54:05.291Z,4.73
2023-04-27T21:56:42.673Z,4.73
2023-04-27T21:59:10.860Z,4.69
2023-04-27T22:01:39.416Z,4.74
2023-04-27T22:04:07.601Z,4.78
2023-04-27T22:06:35.905Z,4.73
2023-04-27T22:09:04.759Z,4.67
2023-04-27T22:11:34.457Z,4.62
2023-04-27T22:14:02.356Z,4.62
2023-04-27T22:16:30.414Z,4.66
2023-04-27T22:18:59.730Z,4.71
2023-04-27T22:21:28.888Z,4.79
2023-04-27T22:23:57.095Z,4.85
2023-04-27T22:26:25.095Z,4.91
2023-04-27T22:28:53.329Z,4.90
2023-04-27T22:31:21.913Z,4.90
2023-04-27T22:33:49.920Z,4.83
2023-04-27T22:36:18.024Z,4.74
2023-04-27T22:38:46.029Z,4.70
2023-04-27T22:41:13.944Z,4.70
2023-04-27T22:43:42.037Z,4.72
2023-04-27T22:46:10.147Z,4.78
2023-04-27T22:48:38.073Z,4.80
2023-04-27T22:51:12.491Z,4.76
2023-04-27T22:53:40.669Z,4.70
2023-04-27T22:56:08.737Z,4.64
2023-04-27T22:58:36.777Z,4.64
2023-04-27T23:01:04.836Z,4.72
2023-04-27T23:03:32.972Z,4.78
2023-04-27T23:06:01.050Z,4.82
2023-04-27T23:08:29.614Z,4.82
2023-04-27T23:10:57.601Z,4.82
2023-04-27T23:13:28.479Z,4.83
2023-04-27T23:15:56.816Z,4.86
2023-04-27T23:18:24.774Z,4.86
2023-04-27T23:20:56.838Z,4.85
2023-04-27T23:23:24.802Z,4.85
2023-04-27T23:25:52.710Z,4.89
2023-04-27T23:28:20.922Z,4.95
2023-04-27T23:30:53.951Z,5.02
2023-04-27T23:33:22.281Z,5.09
2023-04-27T23:35:50.337Z,5.15
2023-04-27T23:38:18.617Z,5.22
2023-04-27T23:40:46.752Z,5.26
2023-04-27T23:43:14.676Z,5.27
2023-04-27T23:45:42.684Z,5.29
2023-04-27T23:48:10.758Z,5.30
2023-04-27T23:50:38.717Z,5.33
2023-04-27T23:53:06.666Z,5.38
2023-04-27T23:55:35.155Z,5.40
2023-04-27T23:58:03.802Z,5.42
